KAIK/AIK METAR and TAF weather

Enter ICAO airport designator
Station Type Date Time Source
KAIK METAR 2018/10/16 20:55 UTC NOAA

KAIK 162055Z AUTO 28008KT 10SM SCT070 28/21 A3010 RMK AO2


Station Type Date Time Source
KAIK Decoded METAR 2018/10/16 20:55 UTC NOAA

Station name not available
Oct 16, 2018 - 04:55 PM EDT / 2018.10.16 2055 UTC
Wind: from the W (280 degrees) at 9 MPH (8 KT):0
Visibility: 10 mile(s):0
Sky conditions: partly cloudy
Temperature: 82 F (28 C)
Dew Point: 69 F (21 C)
Relative Humidity: 65%
Pressure (altimeter): 30.1 in. Hg (1019 hPa)
ob: KAIK 162055Z AUTO 28008KT 10SM SCT070 28/21 A3010 RMK AO2
cycle: 21

Station Type Date Time Source
KAIK TAF UTC NOAA

Error!


Example: see airport list